createdAt,value
2018-04-16T00:00:12.538Z,18.70
2018-04-16T00:01:12.490Z,19.10
2018-04-16T00:02:12.490Z,18.50
2018-04-16T00:03:12.494Z,19.10
2018-04-16T00:04:12.495Z,20.10
2018-04-16T00:05:13.144Z,23.90
2018-04-16T00:06:12.494Z,22.00
2018-04-16T00:07:12.495Z,21.00
2018-04-16T00:08:12.501Z,21.60
2018-04-16T00:09:12.498Z,22.80
2018-04-16T00:10:12.918Z,23.70
2018-04-16T00:11:12.499Z,25.30
2018-04-16T00:12:12.507Z,27.70
2018-04-16T00:13:12.504Z,26.90
2018-04-16T00:14:12.506Z,26.90
2018-04-16T00:15:12.549Z,25.60
2018-04-16T00:16:12.508Z,25.50
2018-04-16T00:17:12.509Z,28.90
2018-04-16T00:18:12.508Z,23.80
2018-04-16T00:19:12.512Z,23.10
2018-04-16T00:20:12.612Z,25.60
2018-04-16T00:21:12.513Z,24.20
2018-04-16T00:22:13.459Z,25.60
2018-04-16T00:23:12.520Z,24.50
2018-04-16T00:24:12.516Z,25.10
2018-04-16T00:25:12.580Z,24.40
2018-04-16T00:26:12.516Z,21.90
2018-04-16T00:27:12.515Z,28.00
2018-04-16T00:28:12.520Z,26.00
2018-04-16T00:29:12.520Z,30.60
2018-04-16T00:30:12.618Z,27.90
2018-04-16T00:31:12.522Z,28.20
2018-04-16T00:32:12.528Z,28.50
2018-04-16T00:33:12.525Z,25.20
2018-04-16T00:34:12.528Z,29.60
2018-04-16T00:35:12.581Z,29.20
2018-04-16T00:36:12.529Z,32.10
2018-04-16T00:37:12.529Z,30.30
2018-04-16T00:38:12.532Z,28.60
2018-04-16T00:39:12.545Z,23.50
2018-04-16T00:40:12.862Z,28.70
2018-04-16T00:41:12.535Z,34.30
2018-04-16T00:42:12.545Z,38.20
2018-04-16T00:43:12.537Z,41.10
2018-04-16T00:44:12.539Z,39.40
2018-04-16T00:45:13.401Z,42.30
2018-04-16T00:46:12.533Z,40.40
2018-04-16T00:47:12.561Z,40.90
2018-04-16T00:48:12.540Z,44.30
2018-04-16T00:49:12.542Z,41.80
2018-04-16T00:50:12.621Z,43.20
2018-04-16T00:51:12.554Z,43.60
2018-04-16T00:52:12.546Z,44.80
2018-04-16T00:53:13.014Z,39.20
2018-04-16T00:54:12.546Z,42.50
2018-04-16T00:55:12.590Z,47.40
2018-04-16T00:56:12.551Z,47.30
2018-04-16T00:57:12.555Z,49.10
2018-04-16T00:58:12.551Z,47.10
2018-04-16T00:59:12.554Z,56.70
2018-04-16T01:00:12.643Z,58.00
2018-04-16T01:01:13.204Z,52.00
2018-04-16T01:02:12.560Z,51.80
2018-04-16T01:03:12.555Z,56.60
2018-04-16T01:04:12.582Z,61.70
2018-04-16T01:05:14.475Z,57.70
2018-04-16T01:06:12.559Z,59.30
2018-04-16T01:07:12.560Z,60.20
2018-04-16T01:08:12.907Z,61.20
2018-04-16T01:09:12.563Z,60.80
2018-04-16T01:10:12.683Z,62.50
2018-04-16T01:11:12.567Z,62.70
2018-04-16T01:12:12.561Z,71.80
2018-04-16T01:13:12.564Z,78.10
2018-04-16T01:14:12.569Z,88.10
2018-04-16T01:15:12.864Z,92.60
2018-04-16T01:16:12.559Z,77.30
2018-04-16T01:17:12.569Z,85.70
2018-04-16T01:18:12.574Z,80.00
2018-04-16T01:19:12.609Z,87.00
2018-04-16T01:20:12.572Z,83.70
2018-04-16T01:21:12.572Z,77.90
2018-04-16T01:22:12.593Z,84.20
2018-04-16T01:23:12.579Z,87.20
2018-04-16T01:24:14.369Z,63.90
2018-04-16T01:25:12.578Z,65.70
2018-04-16T01:26:12.574Z,61.30
2018-04-16T01:27:12.579Z,73.20
2018-04-16T01:28:12.585Z,76.20
2018-04-16T01:29:34.387Z,66.20
2018-04-16T01:30:12.584Z,63.30
2018-04-16T01:31:12.583Z,43.60
2018-04-16T01:32:12.600Z,54.10
2018-04-16T01:33:12.584Z,59.80
2018-04-16T01:34:17.892Z,73.50
2018-04-16T01:35:12.592Z,83.70
2018-04-16T01:36:12.609Z,94.40
2018-04-16T01:37:12.589Z,105.00
2018-04-16T01:38:12.591Z,108.60
2018-04-16T01:39:35.841Z,103.00
2018-04-16T01:40:12.591Z,111.40
2018-04-16T01:41:12.595Z,100.00
2018-04-16T01:42:12.593Z,107.40
2018-04-16T01:43:12.594Z,129.50
2018-04-16T01:44:12.594Z,130.20
2018-04-16T01:45:14.459Z,139.90
2018-04-16T01:46:12.621Z,137.60
2018-04-16T01:47:12.599Z,156.70
2018-04-16T01:48:12.601Z,152.50
2018-04-16T01:49:12.680Z,159.60
2018-04-16T01:50:47.871Z,160.20
2018-04-16T01:51:12.599Z,151.90
2018-04-16T01:52:12.603Z,149.60
2018-04-16T01:53:12.602Z,143.20
2018-04-16T01:54:12.603Z,151.40
2018-04-16T01:55:15.879Z,158.50
2018-04-16T01:56:12.604Z,147.10
2018-04-16T01:57:12.600Z,155.50
2018-04-16T01:58:12.605Z,164.10
2018-04-16T01:59:12.607Z,177.10
2018-04-16T02:00:23.368Z,182.20
2018-04-16T02:01:12.608Z,194.60
2018-04-16T02:02:12.607Z,200.30
2018-04-16T02:03:12.610Z,211.30
2018-04-16T02:04:12.621Z,218.40
2018-04-16T02:05:12.754Z,218.80
2018-04-16T02:06:12.612Z,225.00
2018-04-16T02:07:12.620Z,221.50
2018-04-16T02:08:12.614Z,213.10
2018-04-16T02:09:12.615Z,224.80
2018-04-16T02:10:12.612Z,196.40
2018-04-16T02:11:12.883Z,195.40
2018-04-16T02:12:12.613Z,194.10
2018-04-16T02:13:12.612Z,184.40
2018-04-16T02:14:12.615Z,184.80
2018-04-16T02:15:12.616Z,201.40
2018-04-16T02:16:12.676Z,203.70
2018-04-16T02:17:12.624Z,200.10
2018-04-16T02:18:12.617Z,200.40
2018-04-16T02:19:12.625Z,197.30
2018-04-16T02:20:12.620Z,197.80
2018-04-16T02:21:23.420Z,200.40
2018-04-16T02:22:12.621Z,180.70
2018-04-16T02:23:12.620Z,187.50
2018-04-16T02:24:12.642Z,199.30
2018-04-16T02:25:13.718Z,193.90
2018-04-16T02:26:12.620Z,192.90
2018-04-16T02:27:12.626Z,188.10
2018-04-16T02:28:12.626Z,182.60
2018-04-16T02:29:12.620Z,179.50
2018-04-16T02:30:12.626Z,186.40
2018-04-16T02:31:12.665Z,204.70
2018-04-16T02:32:12.626Z,222.30
2018-04-16T02:33:12.627Z,215.60
2018-04-16T02:34:12.636Z,213.30
2018-04-16T02:35:12.627Z,201.00
2018-04-16T02:36:13.622Z,241.00
2018-04-16T02:37:12.626Z,276.40
2018-04-16T02:38:12.628Z,217.70
2018-04-16T02:39:12.631Z,192.10
2018-04-16T02:40:12.637Z,210.60
2018-04-16T02:45:49.173Z,200.10
2018-04-16T02:46:47.579Z,203.70
2018-04-16T02:47:47.577Z,228.20
2018-04-16T02:48:47.597Z,238.70
2018-04-16T02:49:47.580Z,243.20
2018-04-16T02:50:47.580Z,289.20
2018-04-16T03:36:13.386Z,302.60
2018-04-16T03:37:06.061Z,306.20
2018-04-16T08:35:19.135Z,140.30
2018-04-16T08:35:54.984Z,131.10
2018-04-16T08:36:54.982Z,132.00
2018-04-16T08:37:54.998Z,118.70
2018-04-16T08:38:54.989Z,132.50
2018-04-16T08:39:54.999Z,131.90
2018-04-16T08:51:47.338Z,103.70
2018-04-16T08:52:37.447Z,90.50
2018-04-16T08:53:37.215Z,84.10
2018-04-16T08:54:37.228Z,80.70
2018-04-16T09:03:36.509Z,79.70
2018-04-16T09:04:15.281Z,86.80
2018-04-16T09:05:15.330Z,86.30
2018-04-16T09:06:15.328Z,77.40
2018-04-16T09:07:15.309Z,71.00
2018-04-16T09:08:15.300Z,75.30
2018-04-16T09:09:16.208Z,70.10
2018-04-16T09:12:13.521Z,65.00
2018-04-16T09:12:47.319Z,60.50
2018-04-16T09:13:47.322Z,64.30
2018-04-16T09:14:51.484Z,68.80
2018-04-16T09:15:47.329Z,73.90
2018-04-16T09:16:47.336Z,71.10
2018-04-16T09:17:47.333Z,72.50
2018-04-16T09:18:47.336Z,67.70
2018-04-16T09:20:01.512Z,72.50
2018-04-16T09:20:47.341Z,70.70
2018-04-16T09:21:47.350Z,69.10
2018-04-16T09:22:47.345Z,67.40
2018-04-16T09:23:47.353Z,67.40
2018-04-16T09:24:58.056Z,66.20
2018-04-16T09:25:47.363Z,62.80
2018-04-16T09:26:47.359Z,70.00
2018-04-16T09:27:47.374Z,65.50
2018-04-16T09:28:47.367Z,61.40
2018-04-16T09:29:47.478Z,63.30
2018-04-16T09:30:47.395Z,60.30
2018-04-16T09:31:47.377Z,60.10
2018-04-16T09:32:47.384Z,56.20
2018-04-16T09:33:47.389Z,55.20
2018-04-16T09:35:05.541Z,53.80
2018-04-16T09:35:47.393Z,52.70
2018-04-16T09:36:47.397Z,52.50
2018-04-16T09:37:47.397Z,58.70
2018-04-16T09:38:47.400Z,52.40
2018-04-16T09:39:47.456Z,52.80
2018-04-16T09:40:47.410Z,52.50
2018-04-16T09:41:47.414Z,55.10
2018-04-16T09:42:47.415Z,54.60
2018-04-16T09:43:47.421Z,56.40
2018-04-16T09:45:05.525Z,56.70
2018-04-16T09:45:48.111Z,51.60
2018-04-16T09:46:47.428Z,51.70
2018-04-16T09:47:47.433Z,55.20
2018-04-16T09:48:47.435Z,55.90
2018-04-16T09:49:47.443Z,48.00
2018-04-16T09:50:47.520Z,47.20
2018-04-16T09:51:47.495Z,48.30
2018-04-16T09:52:47.450Z,49.60
2018-04-16T09:53:47.461Z,48.20
2018-04-16T09:54:47.458Z,47.90
2018-04-16T09:55:47.512Z,48.80
2018-04-16T09:56:47.464Z,47.60
2018-04-16T09:57:47.474Z,49.30
2018-04-16T09:58:47.489Z,50.20
2018-04-16T09:59:50.675Z,51.10
2018-04-16T10:00:53.369Z,50.80
2018-04-16T10:01:47.504Z,54.70
2018-04-16T10:02:48.400Z,56.70
2018-04-16T10:03:48.694Z,52.80
2018-04-16T10:06:30.263Z,51.30
2018-04-16T10:07:19.990Z,52.60
2018-04-16T10:08:19.995Z,50.90
2018-04-16T10:10:59.565Z,51.80
2018-04-16T10:11:52.996Z,51.50
2018-04-16T10:12:54.066Z,51.20
2018-04-16T10:13:53.346Z,58.70
2018-04-16T10:15:03.405Z,52.70
2018-04-16T10:15:52.674Z,56.20
2018-04-16T10:16:53.215Z,53.30
2018-04-16T10:17:52.674Z,50.50
2018-04-16T10:18:53.714Z,48.40
2018-04-16T10:19:52.628Z,51.90
2018-04-16T10:20:52.791Z,50.90
2018-04-16T10:21:52.660Z,48.10
2018-04-16T10:22:52.667Z,51.10
2018-04-16T10:23:52.683Z,50.10
2018-04-16T10:24:52.989Z,47.50
2018-04-16T10:25:53.099Z,50.30
2018-04-16T10:26:53.241Z,47.00
2018-04-16T10:27:53.470Z,49.40
2018-04-16T10:28:52.600Z,49.20
2018-04-16T10:30:06.770Z,46.10
2018-04-16T10:30:52.610Z,46.30
2018-04-16T10:31:52.615Z,45.10
2018-04-16T10:32:52.615Z,39.70
2018-04-16T10:33:52.623Z,41.00
2018-04-16T10:34:52.618Z,38.00
2018-04-16T10:35:52.788Z,37.30
2018-04-16T10:36:52.624Z,45.40
2018-04-16T10:37:52.624Z,45.00
2018-04-16T10:38:52.642Z,44.50
2018-04-16T10:39:52.637Z,43.60
2018-04-16T10:40:52.751Z,39.90
2018-04-16T10:41:52.648Z,36.80
2018-04-16T10:42:52.648Z,34.50
2018-04-16T10:43:52.648Z,37.90
2018-04-16T10:44:52.652Z,39.90
2018-04-16T10:46:10.750Z,37.40
2018-04-16T10:46:52.664Z,36.80
2018-04-16T10:47:52.663Z,37.70
2018-04-16T10:48:52.674Z,37.30
2018-04-16T10:49:52.676Z,35.90
2018-04-16T10:51:06.782Z,38.10
2018-04-16T10:51:52.685Z,36.50
2018-04-16T10:52:52.847Z,36.60
2018-04-16T10:53:52.692Z,35.40
2018-04-16T10:54:52.695Z,33.40
2018-04-16T10:56:03.261Z,30.70
2018-04-16T10:56:52.704Z,33.10
2018-04-16T10:57:52.717Z,31.20
2018-04-16T10:58:52.716Z,31.60
2018-04-16T10:59:52.720Z,31.10
2018-04-16T11:00:52.801Z,30.60
2018-04-16T11:01:52.726Z,32.40
2018-04-16T11:02:52.732Z,28.70
2018-04-16T11:03:52.737Z,30.50
2018-04-16T11:04:52.746Z,30.20
2018-04-16T11:05:52.800Z,30.20
2018-04-16T11:06:52.748Z,29.90
2018-04-16T11:07:52.754Z,29.00
2018-04-16T11:08:52.758Z,29.70
2018-04-16T11:09:52.765Z,29.10
2018-04-16T11:10:52.835Z,29.90
2018-04-16T11:11:52.824Z,30.20
2018-04-16T11:12:52.777Z,30.50
2018-04-16T11:13:52.782Z,33.00
2018-04-16T11:14:52.787Z,31.40
2018-04-16T11:15:53.748Z,28.90
2018-04-16T11:16:52.797Z,29.90
2018-04-16T11:17:52.804Z,28.90
2018-04-16T11:18:52.812Z,30.40
2018-04-16T11:19:52.812Z,30.30
2018-04-16T11:20:52.856Z,28.70
2018-04-16T11:21:52.824Z,28.20
2018-04-16T11:22:52.828Z,29.70
2018-04-16T11:23:52.834Z,31.00
2018-04-16T11:24:52.837Z,28.40
2018-04-16T11:25:53.303Z,31.10
2018-04-16T11:26:52.845Z,30.30
2018-04-16T11:27:52.849Z,30.10
2018-04-16T11:28:53.602Z,30.00
2018-04-16T11:29:52.857Z,29.00
2018-04-16T11:31:07.690Z,32.80
2018-04-16T11:31:52.872Z,32.50
2018-04-16T11:32:52.877Z,32.80
2018-04-16T11:33:52.883Z,32.20
2018-04-16T11:34:52.882Z,33.20
2018-04-16T11:35:52.887Z,38.10
2018-04-16T11:37:11.259Z,35.80
2018-04-16T11:37:52.896Z,38.80
2018-04-16T11:38:52.916Z,42.30
2018-04-16T11:39:52.906Z,43.10
2018-04-16T11:40:58.261Z,42.00
2018-04-16T11:41:52.911Z,42.60
2018-04-16T11:42:52.913Z,44.70
2018-04-16T11:43:52.922Z,48.40
2018-04-16T11:44:52.923Z,46.30
2018-04-16T11:45:54.769Z,38.10
2018-04-16T11:46:52.929Z,45.40
2018-04-16T11:47:52.934Z,41.70
2018-04-16T11:48:52.935Z,41.40
2018-04-16T11:49:52.938Z,47.00
2018-04-16T11:50:53.912Z,47.40
2018-04-16T11:51:52.981Z,40.60
2018-04-16T11:52:52.950Z,40.80
2018-04-16T11:53:52.950Z,48.00
2018-04-16T11:54:52.955Z,48.00
2018-04-16T11:55:52.978Z,44.50
2018-04-16T11:56:54.716Z,46.20
2018-04-16T11:57:52.969Z,44.00
2018-04-16T11:58:53.715Z,45.30
2018-04-16T11:59:52.975Z,43.70
2018-04-16T12:00:52.999Z,44.10
2018-04-16T12:01:54.761Z,48.70
2018-04-16T12:02:52.981Z,45.10
2018-04-16T12:03:52.981Z,43.20
2018-04-16T12:04:52.983Z,46.90
2018-04-16T12:05:52.984Z,48.70
2018-04-16T12:06:53.022Z,56.00
2018-04-16T12:07:52.988Z,59.60
2018-04-16T12:08:53.887Z,56.30
2018-04-16T12:09:52.991Z,53.70
2018-04-16T12:10:52.996Z,48.90
2018-04-16T12:11:53.798Z,54.00
2018-04-16T12:12:53.005Z,57.40
2018-04-16T12:13:53.002Z,56.40
2018-04-16T12:14:53.006Z,57.00
2018-04-16T12:15:53.005Z,55.50
2018-04-16T12:16:54.763Z,44.80
2018-04-16T12:17:53.058Z,50.80
2018-04-16T12:18:53.015Z,53.00
2018-04-16T12:19:53.015Z,53.80
2018-04-16T12:21:32.270Z,57.90
2018-04-16T12:21:53.448Z,54.00
2018-04-16T12:22:53.032Z,55.20
2018-04-16T12:23:53.030Z,55.40
2018-04-16T12:24:53.074Z,59.70
2018-04-16T12:29:02.859Z,65.20
2018-04-16T12:29:57.447Z,61.00
2018-04-16T12:30:57.853Z,53.30
2018-04-16T12:31:57.481Z,50.60
2018-04-16T12:32:57.487Z,50.90
2018-04-16T12:33:57.451Z,57.10
2018-04-16T12:34:57.457Z,54.70
2018-04-16T12:35:57.461Z,55.60
2018-04-16T12:37:26.345Z,56.60
2018-04-16T12:37:57.510Z,56.90
2018-04-16T12:38:57.464Z,57.00
2018-04-16T12:39:57.469Z,70.80
2018-04-16T12:59:45.073Z,69.30
2018-04-16T13:00:40.881Z,73.70
2018-04-16T13:01:20.652Z,84.30
2018-04-16T13:02:19.880Z,86.20
2018-04-16T13:03:19.883Z,89.90
2018-04-16T13:04:19.881Z,88.70
2018-04-16T13:19:07.625Z,61.80
2018-04-16T13:20:13.307Z,52.40
2018-04-16T13:21:07.591Z,53.00
2018-04-16T13:22:07.593Z,60.90
2018-04-16T13:23:07.598Z,59.40
2018-04-16T13:24:07.597Z,58.50
2018-04-16T13:25:12.783Z,52.50
2018-04-16T13:26:07.602Z,56.90
2018-04-16T13:27:07.607Z,55.30
2018-04-16T13:28:07.607Z,58.90
2018-04-16T13:29:07.609Z,64.40
2018-04-16T13:30:31.787Z,60.70
2018-04-16T13:31:07.627Z,44.90
2018-04-16T13:32:07.620Z,50.80
2018-04-16T13:33:07.621Z,49.10
2018-04-16T13:34:07.619Z,46.60
2018-04-16T13:35:07.629Z,45.60
2018-04-16T13:36:07.781Z,45.30
2018-04-16T13:37:07.630Z,50.30
2018-04-16T13:38:07.629Z,51.60
2018-04-16T13:39:07.709Z,52.90
2018-04-16T13:40:07.634Z,52.30
2018-04-16T13:41:25.779Z,48.90
2018-04-16T13:42:07.637Z,48.30
2018-04-16T13:43:07.690Z,44.50
2018-04-16T13:44:07.644Z,46.90
2018-04-16T13:45:07.712Z,42.80
2018-04-16T13:46:07.647Z,43.40
2018-04-16T13:47:07.648Z,48.60
2018-04-16T13:48:07.653Z,45.10
2018-04-16T13:49:07.659Z,49.80
2018-04-16T13:50:07.660Z,43.30
2018-04-16T13:51:07.898Z,45.30
2018-04-16T13:52:08.222Z,47.10
2018-04-16T13:53:07.665Z,44.30
2018-04-16T13:54:07.666Z,47.80
2018-04-16T13:55:07.849Z,45.00
2018-04-16T13:56:07.670Z,45.00
2018-04-16T13:57:36.302Z,47.40
2018-04-16T13:58:07.683Z,42.60
2018-04-16T13:59:07.738Z,43.30
2018-04-16T14:00:07.689Z,46.30
2018-04-16T14:01:07.686Z,45.70
2018-04-16T14:02:07.780Z,43.80
2018-04-16T14:03:07.691Z,43.00
2018-04-16T14:04:07.694Z,44.70
2018-04-16T14:05:07.695Z,48.20
2018-04-16T14:06:07.836Z,44.10
2018-04-16T14:07:07.700Z,46.20
2018-04-16T14:08:07.705Z,45.60
2018-04-16T14:09:07.708Z,44.60
2018-04-16T14:10:08.242Z,47.50
2018-04-16T14:11:21.804Z,43.10
2018-04-16T14:12:07.723Z,42.80
2018-04-16T14:13:07.718Z,44.20
2018-04-16T14:14:07.720Z,46.40
2018-04-16T14:15:07.727Z,44.60
2018-04-16T14:16:07.791Z,44.50
2018-04-16T14:17:07.728Z,41.30
2018-04-16T14:18:07.729Z,41.50
2018-04-16T14:19:07.767Z,41.60
2018-04-16T14:20:07.734Z,47.20
2018-04-16T14:21:07.743Z,44.10
2018-04-16T14:22:07.796Z,50.00
2018-04-16T14:23:07.744Z,43.20
2018-04-16T14:24:07.743Z,40.90
2018-04-16T14:25:07.748Z,43.00
2018-04-16T14:26:08.740Z,43.60
2018-04-16T14:27:07.798Z,43.50
2018-04-16T14:28:07.797Z,43.90
2018-04-16T14:29:07.760Z,44.30
2018-04-16T14:30:07.763Z,42.50
2018-04-16T14:31:07.766Z,43.00
2018-04-16T14:32:07.840Z,44.50
2018-04-16T14:33:07.772Z,42.00
2018-04-16T14:34:07.773Z,43.80
2018-04-16T14:35:07.773Z,44.60
2018-04-16T14:36:07.773Z,44.80
2018-04-16T14:37:07.888Z,42.40
2018-04-16T14:38:07.791Z,45.20
2018-04-16T14:39:07.787Z,43.90
2018-04-16T14:40:07.787Z,45.50
2018-04-16T14:41:07.802Z,47.00
2018-04-16T14:42:11.312Z,44.90
2018-04-16T14:43:07.791Z,48.40
2018-04-16T14:44:08.797Z,47.90
2018-04-16T14:45:07.798Z,47.50
2018-04-16T14:46:07.802Z,49.50
2018-04-16T14:47:07.863Z,46.70
2018-04-16T14:48:07.807Z,48.70
2018-04-16T14:49:07.811Z,45.50
2018-04-16T14:50:07.831Z,47.30
2018-04-16T14:51:07.813Z,46.00
2018-04-16T14:52:07.857Z,47.50
2018-04-16T14:53:07.817Z,51.40
2018-04-16T14:54:08.714Z,45.00
2018-04-16T14:55:07.823Z,46.10
2018-04-16T14:56:07.828Z,46.00
2018-04-16T14:57:07.929Z,47.40
2018-04-16T14:58:07.889Z,53.60
2018-04-16T14:59:07.839Z,51.40
2018-04-16T15:00:07.837Z,53.30
2018-04-16T15:01:07.853Z,54.70
2018-04-16T15:02:07.891Z,46.40
2018-04-16T15:03:07.852Z,50.10
2018-04-16T15:04:07.846Z,52.60
2018-04-16T15:05:07.849Z,45.50
2018-04-16T15:06:07.855Z,45.60
2018-04-16T15:07:08.844Z,48.70
2018-04-16T15:08:08.029Z,44.00
2018-04-16T15:09:07.862Z,45.50
2018-04-16T15:10:07.861Z,46.10
2018-04-16T15:11:07.866Z,46.60
2018-04-16T15:12:07.871Z,46.40
2018-04-16T15:13:26.311Z,47.00
2018-04-16T15:14:07.873Z,42.90
2018-04-16T15:15:07.876Z,43.90
2018-04-16T15:16:07.881Z,45.70
2018-04-16T15:17:07.881Z,48.20
2018-04-16T15:18:08.066Z,43.30
2018-04-16T15:19:07.893Z,45.70
2018-04-16T15:20:07.894Z,62.20
2018-04-16T15:21:07.901Z,67.20
2018-04-16T15:22:07.895Z,55.50
2018-04-16T15:23:08.069Z,48.00
2018-04-16T15:24:07.902Z,61.90
2018-04-16T15:25:07.925Z,55.00
2018-04-16T15:26:07.923Z,66.00
2018-04-16T15:27:07.938Z,95.50
2018-04-16T15:28:18.814Z,73.40
2018-04-16T15:29:07.916Z,55.30
2018-04-16T15:30:07.921Z,65.80
2018-04-16T15:31:07.921Z,96.30
2018-04-16T15:32:07.922Z,61.40
2018-04-16T15:33:07.965Z,62.40
2018-04-16T15:34:07.925Z,53.80
2018-04-16T15:35:07.927Z,56.40
2018-04-16T15:36:07.934Z,92.30
2018-04-16T15:37:07.933Z,63.40
2018-04-16T15:38:13.317Z,58.00
2018-04-16T15:39:07.939Z,70.40
2018-04-16T15:40:07.940Z,49.70
2018-04-16T15:41:08.081Z,61.70
2018-04-16T15:42:07.950Z,55.90
2018-04-16T15:43:07.990Z,56.30
2018-04-16T15:44:07.954Z,64.30
2018-04-16T15:45:07.959Z,62.90
2018-04-16T15:46:07.952Z,61.10
2018-04-16T15:47:07.957Z,56.50
2018-04-16T15:48:08.014Z,65.50
2018-04-16T15:49:07.961Z,64.70
2018-04-16T15:50:07.966Z,65.00
2018-04-16T15:51:07.964Z,52.30
2018-04-16T15:52:07.965Z,54.00
2018-04-16T15:53:08.013Z,62.30
2018-04-16T15:54:07.973Z,59.30
2018-04-16T15:55:07.974Z,62.10
2018-04-16T15:56:07.982Z,61.70
2018-04-16T15:57:07.979Z,69.50
2018-04-16T15:58:08.070Z,80.90
2018-04-16T15:59:07.984Z,55.60
2018-04-16T16:00:07.988Z,64.30
2018-04-16T16:01:07.987Z,53.70
2018-04-16T16:02:07.987Z,57.80
2018-04-16T16:03:08.467Z,51.40
2018-04-16T16:04:08.040Z,52.20
2018-04-16T16:05:08.018Z,53.10
2018-04-16T16:06:07.999Z,54.30
2018-04-16T16:07:08.005Z,47.50
2018-04-16T16:08:08.001Z,49.10
2018-04-16T16:09:08.047Z,49.40
2018-04-16T16:10:08.006Z,47.20
2018-04-16T16:11:08.009Z,47.10
2018-04-16T16:12:08.940Z,43.40
2018-04-16T16:13:08.016Z,43.90
2018-04-16T16:14:08.642Z,45.40
2018-04-16T16:15:08.054Z,46.00
2018-04-16T16:16:08.359Z,39.90
2018-04-16T16:17:08.066Z,41.30
2018-04-16T16:18:08.052Z,40.90
2018-04-16T16:19:08.796Z,43.30
2018-04-16T16:20:08.055Z,44.50
2018-04-16T16:21:08.043Z,43.30
2018-04-16T16:22:09.970Z,54.80
2018-04-16T16:23:08.767Z,50.00
2018-04-16T16:24:08.038Z,45.70
2018-04-16T16:25:08.087Z,38.90
2018-04-16T16:26:08.038Z,43.00
2018-04-16T16:27:08.050Z,38.50
2018-04-16T16:28:08.041Z,37.80
2018-04-16T16:29:08.049Z,37.10
2018-04-16T16:30:08.877Z,37.50
2018-04-16T16:31:08.141Z,38.70
2018-04-16T16:32:08.053Z,35.60
2018-04-16T16:33:08.055Z,36.00
2018-04-16T16:34:08.105Z,32.80
2018-04-16T16:35:08.054Z,34.70
2018-04-16T16:36:08.966Z,38.40
2018-04-16T16:37:08.064Z,35.10
2018-04-16T16:38:08.062Z,34.20
2018-04-16T16:39:08.828Z,38.50
2018-04-16T16:40:08.073Z,36.30
2018-04-16T16:41:08.761Z,45.00
2018-04-16T16:42:08.072Z,67.20
2018-04-16T16:43:08.076Z,61.60
2018-04-16T16:44:08.131Z,55.00
2018-04-16T16:45:08.075Z,41.70
2018-04-16T16:46:08.081Z,40.80
2018-04-16T16:47:08.085Z,40.80
2018-04-16T16:48:08.086Z,37.40
2018-04-16T16:49:08.093Z,40.40
2018-04-16T16:50:08.350Z,41.20
2018-04-16T16:51:08.091Z,44.30
2018-04-16T16:52:08.098Z,39.20
2018-04-16T16:53:08.100Z,41.80
2018-04-16T16:54:08.156Z,45.10
2018-04-16T16:55:08.137Z,47.90
2018-04-16T16:56:08.103Z,47.00
2018-04-16T16:57:08.116Z,51.00
2018-04-16T16:58:08.111Z,49.80
2018-04-16T16:59:08.110Z,52.80
2018-04-16T17:00:08.165Z,46.50
2018-04-16T17:01:08.118Z,43.80
2018-04-16T17:02:08.127Z,45.20
2018-04-16T17:03:08.121Z,47.30
2018-04-16T17:04:08.126Z,47.70
2018-04-16T17:05:08.211Z,47.80
2018-04-16T17:06:08.133Z,44.20
2018-04-16T17:07:08.163Z,46.60
2018-04-16T17:08:08.148Z,52.50
2018-04-16T17:09:08.132Z,70.70
2018-04-16T17:10:08.183Z,202.50
2018-04-16T17:11:08.133Z,206.10
2018-04-16T17:12:08.144Z,224.00
2018-04-16T17:13:08.139Z,103.60
2018-04-16T17:14:08.141Z,177.90
2018-04-16T17:15:08.882Z,128.30
2018-04-16T17:16:08.149Z,73.20
2018-04-16T17:17:08.149Z,66.50
2018-04-16T17:18:08.149Z,62.00
2018-04-16T17:19:08.151Z,56.50
2018-04-16T17:20:08.232Z,61.00
2018-04-16T17:21:08.923Z,59.60
2018-04-16T17:22:08.155Z,61.00
2018-04-16T17:23:08.161Z,85.20
2018-04-16T17:24:08.176Z,109.20
2018-04-16T17:25:08.167Z,59.90
2018-04-16T17:26:08.204Z,109.60
2018-04-16T17:27:08.166Z,108.20
2018-04-16T17:28:08.169Z,128.80
2018-04-16T17:29:08.174Z,66.10
2018-04-16T17:30:08.175Z,85.70
2018-04-16T17:31:08.225Z,51.50
2018-04-16T17:32:08.636Z,61.00
2018-04-16T17:33:08.184Z,61.50
2018-04-16T17:34:08.183Z,57.80
2018-04-16T17:35:08.183Z,60.00
2018-04-16T17:36:18.858Z,59.40
2018-04-16T17:37:08.185Z,60.10
2018-04-16T17:38:08.188Z,73.00
2018-04-16T17:39:08.188Z,59.90
2018-04-16T17:40:08.198Z,51.60
2018-04-16T17:41:08.241Z,50.90
2018-04-16T17:42:08.198Z,46.60
2018-04-16T17:43:08.197Z,43.20
2018-04-16T17:44:08.204Z,44.00
2018-04-16T17:45:08.202Z,47.00
2018-04-16T17:46:08.275Z,47.60
2018-04-16T17:47:08.207Z,49.60
2018-04-16T17:48:08.207Z,54.10
2018-04-16T17:49:08.208Z,54.30
2018-04-16T17:50:08.209Z,55.80
2018-04-16T17:51:08.220Z,59.10
2018-04-16T17:52:08.260Z,61.30
2018-04-16T17:53:08.766Z,64.90
2018-04-16T17:54:08.220Z,64.10
2018-04-16T17:55:08.225Z,62.40
2018-04-16T17:56:08.227Z,70.10
2018-04-16T17:57:29.391Z,81.30
2018-04-16T17:58:08.280Z,128.50
2018-04-16T17:59:08.269Z,209.10
2018-04-16T18:00:08.237Z,157.30
2018-04-16T18:01:08.230Z,113.20
2018-04-16T18:02:08.313Z,89.60
2018-04-16T18:03:08.231Z,109.90
2018-04-16T18:04:08.232Z,127.10
2018-04-16T18:05:08.238Z,146.60
2018-04-16T18:06:08.238Z,166.30
2018-04-16T18:07:13.355Z,157.30
2018-04-16T18:08:08.239Z,164.30
2018-04-16T18:09:08.238Z,144.90
2018-04-16T18:10:08.243Z,157.10
2018-04-16T18:11:08.243Z,153.10
2018-04-16T18:12:08.289Z,168.80
2018-04-16T18:13:08.337Z,208.90
2018-04-16T18:14:08.245Z,191.40
2018-04-16T18:15:08.250Z,195.80
2018-04-16T18:16:08.248Z,216.60
2018-04-16T18:17:08.326Z,191.60
2018-04-16T18:18:08.252Z,316.70
2018-04-16T18:19:08.250Z,338.10
2018-04-16T18:20:08.250Z,237.70
2018-04-16T18:21:08.255Z,145.40
2018-04-16T18:22:08.255Z,149.70
2018-04-16T18:27:43.249Z,181.50
2018-04-16T18:28:43.185Z,166.80
2018-04-16T18:29:43.198Z,137.90
2018-04-16T18:30:43.187Z,129.50
2018-04-16T18:31:43.195Z,142.30
2018-04-16T18:33:04.285Z,164.80
2018-04-16T18:33:43.190Z,189.40
2018-04-16T18:34:43.245Z,167.20
2018-04-16T18:35:43.208Z,186.00
2018-04-16T18:36:43.198Z,180.00
2018-04-16T18:37:43.883Z,180.10
2018-04-16T18:38:43.208Z,190.40
2018-04-16T18:39:43.213Z,200.60
2018-04-16T18:40:43.195Z,191.00
2018-04-16T18:41:43.200Z,222.20
2018-04-16T18:42:43.282Z,190.30
2018-04-16T18:43:43.199Z,226.10
2018-04-16T18:44:43.202Z,260.30
2018-04-16T18:45:43.195Z,247.70
2018-04-16T18:46:43.200Z,204.80
2018-04-16T18:47:48.319Z,202.80
2018-04-16T18:48:43.194Z,134.50
2018-04-16T18:49:43.211Z,125.60
2018-04-16T18:50:43.201Z,114.90
2018-04-16T18:51:43.204Z,96.60
2018-04-16T18:52:43.245Z,110.60
2018-04-16T18:53:43.199Z,94.70
2018-04-16T18:54:43.206Z,134.90
2018-04-16T18:55:43.215Z,155.20
2018-04-16T18:56:43.205Z,145.50
2018-04-16T18:57:43.260Z,142.60
2018-04-16T18:58:43.201Z,152.50
2018-04-16T18:59:43.763Z,153.40
2018-04-16T19:00:43.206Z,154.10
2018-04-16T19:01:43.208Z,159.50
2018-04-16T19:02:43.250Z,144.30
2018-04-16T19:03:43.203Z,152.50
2018-04-16T19:04:43.757Z,176.20
2018-04-16T19:05:43.214Z,188.90
2018-04-16T19:06:43.206Z,192.90
2018-04-16T19:07:43.398Z,167.80
2018-04-16T19:08:43.207Z,142.60
2018-04-16T19:09:43.203Z,144.00
2018-04-16T19:10:43.764Z,148.10
2018-04-16T19:11:43.211Z,147.70
2018-04-16T19:12:43.207Z,139.80
2018-04-16T19:13:53.822Z,150.70
2018-04-16T19:14:43.207Z,151.10
2018-04-16T19:15:43.276Z,159.40
2018-04-16T19:16:43.207Z,203.40
2018-04-16T19:17:43.211Z,175.70
2018-04-16T19:18:43.261Z,220.20
2018-04-16T19:19:43.204Z,205.60
2018-04-16T19:20:43.218Z,173.30
2018-04-16T19:21:43.204Z,166.30
2018-04-16T19:22:43.208Z,182.50
2018-04-16T19:23:43.497Z,143.30
2018-04-16T19:24:43.206Z,146.40
2018-04-16T19:25:43.268Z,134.00
2018-04-16T19:26:43.210Z,144.50
2018-04-16T19:27:43.204Z,131.60
2018-04-16T19:28:43.205Z,134.50
2018-04-16T19:29:43.281Z,125.10
2018-04-16T19:30:43.206Z,120.90
2018-04-16T19:31:43.205Z,129.00
2018-04-16T19:32:43.202Z,140.80
2018-04-16T19:33:43.201Z,153.40
2018-04-16T19:34:43.289Z,177.10